createdAt,value
2023-02-06T00:00:11.522Z,101774.80
2023-02-06T00:02:42.933Z,101780.70
2023-02-06T00:05:11.705Z,101784.69
2023-02-06T00:07:40.233Z,101783.65
2023-02-06T00:10:08.875Z,101783.40
2023-02-06T00:12:44.134Z,101788.02
2023-02-06T00:15:12.288Z,101785.02
2023-02-06T00:17:41.023Z,101788.50
2023-02-06T00:20:10.384Z,101789.23
2023-02-06T00:22:39.500Z,101789.95
2023-02-06T00:25:07.958Z,101790.01
2023-02-06T00:27:36.565Z,101790.36
2023-02-06T00:30:06.374Z,101787.52
2023-02-06T00:32:35.109Z,101788.94
2023-02-06T00:35:03.806Z,101788.38
2023-02-06T00:37:32.125Z,101790.16
2023-02-06T00:40:03.137Z,101792.69
2023-02-06T00:42:31.581Z,101795.61
2023-02-06T00:45:00.592Z,101791.67
2023-02-06T00:47:28.958Z,101795.38
2023-02-06T00:49:57.499Z,101792.52
2023-02-06T00:52:25.946Z,101796.81
2023-02-06T00:54:54.731Z,101792.99
2023-02-06T00:57:22.968Z,101794.79
2023-02-06T00:59:51.532Z,101794.96
2023-02-06T01:02:20.301Z,101794.48
2023-02-06T01:04:51.904Z,101790.20
2023-02-06T01:07:22.668Z,101789.90
2023-02-06T01:09:57.187Z,101794.05
2023-02-06T01:12:27.118Z,101790.58
2023-02-06T01:14:55.278Z,101790.45
2023-02-06T01:17:23.502Z,101782.08
2023-02-06T01:19:51.827Z,101784.15
2023-02-06T01:22:20.336Z,101782.98
2023-02-06T01:24:48.890Z,101787.42
2023-02-06T01:27:17.110Z,101788.83
2023-02-06T01:29:45.317Z,101789.63
2023-02-06T01:32:13.568Z,101790.77
2023-02-06T01:34:41.722Z,101791.27
2023-02-06T01:37:10.705Z,101794.63
2023-02-06T01:39:39.211Z,101794.52
2023-02-06T01:42:07.584Z,101797.19
2023-02-06T01:44:36.086Z,101793.86
2023-02-06T01:47:04.709Z,101798.50
2023-02-06T01:49:45.186Z,101799.34
2023-02-06T01:52:16.525Z,101802.13
2023-02-06T01:54:46.282Z,101803.48
2023-02-06T01:57:14.680Z,101806.52
2023-02-06T01:59:44.492Z,101808.62
2023-02-06T02:02:13.071Z,101810.19
2023-02-06T02:04:41.332Z,101807.79
2023-02-06T02:07:24.608Z,101813.70
2023-02-06T02:09:56.445Z,101814.09
2023-02-06T02:12:24.592Z,101816.28
2023-02-06T02:14:54.925Z,101810.99
2023-02-06T02:17:42.211Z,101811.07
2023-02-06T02:20:25.879Z,101810.75
2023-02-06T02:22:57.789Z,101811.79
2023-02-06T02:25:52.090Z,101812.50
2023-02-06T02:28:48.244Z,101813.22
2023-02-06T02:31:25.588Z,101818.05
2023-02-06T02:34:04.952Z,101820.01
2023-02-06T02:36:53.813Z,101825.91
2023-02-06T02:39:29.153Z,101827.18
2023-02-06T02:41:58.827Z,101834.18
2023-02-06T02:44:54.787Z,101833.04
2023-02-06T02:47:29.971Z,101833.10
2023-02-06T02:50:00.314Z,101831.93
2023-02-06T02:52:28.775Z,101834.61
2023-02-06T02:54:56.830Z,101836.84
2023-02-06T02:57:28.698Z,101841.34
2023-02-06T02:59:58.296Z,101837.60
2023-02-06T03:02:32.571Z,101840.54
2023-02-06T03:05:04.404Z,101836.81
2023-02-06T03:07:33.058Z,101830.34
2023-02-06T03:10:04.169Z,101832.17
2023-02-06T03:12:32.944Z,101825.30
2023-02-06T03:15:05.423Z,101827.73
2023-02-06T03:18:12.245Z,101828.41
2023-02-06T03:20:44.383Z,101831.88
2023-02-06T03:23:15.386Z,101833.00
2023-02-06T03:25:44.550Z,101832.96
2023-02-06T03:28:26.248Z,101838.77
2023-02-06T03:30:55.892Z,101839.65
2023-02-06T03:33:32.648Z,101840.98
2023-02-06T03:36:01.224Z,101840.30
2023-02-06T03:38:29.743Z,101839.71
2023-02-06T03:40:58.276Z,101841.60
2023-02-06T03:43:27.270Z,101844.92
2023-02-06T03:46:00.013Z,101846.41
2023-02-06T03:48:31.918Z,101848.60
2023-02-06T03:51:02.960Z,101847.25
2023-02-06T03:53:30.966Z,101848.33
2023-02-06T03:56:01.156Z,101850.62
2023-02-06T03:58:29.762Z,101855.81
2023-02-06T04:00:57.947Z,101853.53
2023-02-06T04:03:26.271Z,101855.33
2023-02-06T04:05:54.467Z,101860.77
2023-02-06T04:08:23.567Z,101861.79
2023-02-06T04:10:51.632Z,101863.07
2023-02-06T04:13:20.694Z,101864.63
2023-02-06T04:15:48.802Z,101863.11
2023-02-06T04:18:17.246Z,101862.52
2023-02-06T04:20:49.899Z,101867.84
2023-02-06T04:23:19.784Z,101871.39
2023-02-06T04:25:48.160Z,101870.85
2023-02-06T04:28:16.349Z,101871.54
2023-02-06T04:30:45.004Z,101872.98
2023-02-06T04:33:13.292Z,101870.55
2023-02-06T04:35:42.251Z,101874.10
2023-02-06T04:38:10.427Z,101873.66
2023-02-06T04:40:38.636Z,101879.54
2023-02-06T04:43:06.911Z,101881.92
2023-02-06T04:45:35.733Z,101882.84
2023-02-06T04:48:04.283Z,101885.79
2023-02-06T04:50:34.518Z,101889.60
2023-02-06T04:53:02.885Z,101888.66
2023-02-06T04:55:31.165Z,101888.90
2023-02-06T04:57:59.532Z,101891.16
2023-02-06T05:00:27.823Z,101887.91
2023-02-06T05:02:56.332Z,101889.94
2023-02-06T05:05:24.574Z,101894.46
2023-02-06T05:07:53.463Z,101897.41
2023-02-06T05:10:21.769Z,101908.62
2023-02-06T05:12:53.393Z,101910.52
2023-02-06T05:15:22.084Z,101914.86
2023-02-06T05:17:50.155Z,101910.88
2023-02-06T05:20:19.294Z,101917.02
2023-02-06T05:22:49.432Z,101919.23
2023-02-06T05:25:18.056Z,101924.81
2023-02-06T05:27:46.263Z,101920.48
2023-02-06T05:30:14.886Z,101923.88
2023-02-06T05:32:43.501Z,101922.26
2023-02-06T05:35:11.668Z,101922.27
2023-02-06T05:37:40.370Z,101920.79
2023-02-06T05:40:09.691Z,101920.41
2023-02-06T05:42:39.556Z,101924.13
2023-02-06T05:45:08.984Z,101921.17
2023-02-06T05:47:37.388Z,101923.05
2023-02-06T05:50:06.150Z,101920.71
2023-02-06T05:52:35.044Z,101916.68
2023-02-06T05:55:04.154Z,101921.98
2023-02-06T05:57:32.560Z,101922.16
2023-02-06T06:00:01.111Z,101923.09
2023-02-06T06:02:39.847Z,101928.39
2023-02-06T06:05:08.677Z,101927.15
2023-02-06T06:07:40.847Z,101932.27
2023-02-06T06:10:10.543Z,101937.16
2023-02-06T06:12:41.128Z,101936.63
2023-02-06T06:15:10.844Z,101941.48
2023-02-06T06:17:39.692Z,101936.91
2023-02-06T06:20:09.581Z,101943.81
2023-02-06T06:22:47.901Z,101950.03
2023-02-06T06:25:29.974Z,101956.86
2023-02-06T06:28:01.384Z,101963.73
2023-02-06T06:30:34.283Z,101968.16
2023-02-06T06:33:04.825Z,101968.24
2023-02-06T06:35:45.432Z,101969.86
2023-02-06T06:38:20.588Z,101972.65
2023-02-06T06:40:49.165Z,101974.50
2023-02-06T06:43:23.659Z,101974.48
2023-02-06T06:45:57.288Z,101971.94
2023-02-06T06:48:27.425Z,101971.95
2023-02-06T07:00:09.799Z,101963.02
2023-02-06T07:02:40.826Z,101966.45
2023-02-06T07:05:09.711Z,101966.28
2023-02-06T07:07:39.822Z,101970.19
2023-02-06T07:10:13.030Z,101969.09
2023-02-06T07:12:44.840Z,101972.44
2023-02-06T07:15:20.333Z,101971.22
2023-02-06T07:17:59.264Z,101965.29
2023-02-06T07:20:32.386Z,101970.42
2023-02-06T07:26:07.103Z,101966.09
2023-02-06T07:28:56.917Z,101960.55
2023-02-06T07:34:37.913Z,101958.14
2023-02-06T07:37:06.998Z,101955.08
2023-02-06T07:39:38.510Z,101951.52
2023-02-06T07:45:00.855Z,101952.48
2023-02-06T07:47:30.736Z,101948.07
2023-02-06T07:50:11.114Z,101949.42
2023-02-06T07:52:51.123Z,101952.05
2023-02-06T07:55:20.653Z,101951.70
2023-02-06T07:58:11.968Z,101956.67
2023-02-06T08:00:47.270Z,101957.64
2023-02-06T08:03:17.354Z,101956.99
2023-02-06T08:05:49.717Z,101963.66
2023-02-06T08:08:19.580Z,101962.07
2023-02-06T08:10:49.733Z,101961.65
2023-02-06T08:13:33.022Z,101958.38
2023-02-06T08:16:06.694Z,101957.07
2023-02-06T08:18:36.128Z,101960.78
